createdAt,value
2023-11-25T00:00:28.429Z,13.40
2023-11-25T00:02:57.831Z,13.30
2023-11-25T00:05:26.157Z,13.40
2023-11-25T00:07:54.475Z,13.40
2023-11-25T00:10:24.231Z,13.40
2023-11-25T00:12:52.618Z,13.40
2023-11-25T00:15:22.147Z,13.40
2023-11-25T00:17:50.552Z,13.40
2023-11-25T00:20:19.004Z,13.30
2023-11-25T00:22:47.391Z,13.30
2023-11-25T00:25:16.376Z,13.30
2023-11-25T00:27:47.408Z,13.30
2023-11-25T00:30:17.285Z,13.30
2023-11-25T00:32:45.629Z,13.20
2023-11-25T00:35:14.638Z,13.20
2023-11-25T00:37:43.766Z,13.10
2023-11-25T00:49:05.962Z,13.20
2023-11-25T00:51:34.430Z,13.30
2023-11-25T00:54:02.877Z,13.30
2023-11-25T00:56:31.254Z,13.20
2023-11-25T00:58:59.702Z,13.20
2023-11-25T01:01:28.211Z,13.20
2023-11-25T01:03:56.851Z,13.20
2023-11-25T01:06:26.658Z,13.30
2023-11-25T01:09:04.306Z,13.30
2023-11-25T01:11:34.108Z,13.30
2023-11-25T01:14:02.686Z,13.40
2023-11-25T01:16:31.415Z,13.50
2023-11-25T01:19:00.128Z,13.50
2023-11-25T01:21:33.263Z,13.50
2023-11-25T01:24:02.972Z,13.50
2023-11-25T01:26:31.592Z,13.40
2023-11-25T01:29:00.245Z,13.50
2023-11-25T01:31:28.922Z,13.50
2023-11-25T01:33:58.658Z,13.50
2023-11-25T01:36:27.856Z,13.50
2023-11-25T01:38:57.846Z,13.60
2023-11-25T01:41:26.402Z,13.70
2023-11-25T01:43:56.188Z,13.60
2023-11-25T01:46:34.691Z,13.60
2023-11-25T01:49:04.117Z,13.60
2023-11-25T01:51:34.256Z,13.50
2023-11-25T01:54:06.398Z,13.50
2023-11-25T01:56:36.078Z,13.50
2023-11-25T01:59:08.231Z,13.50
2023-11-25T02:01:38.161Z,13.60
2023-11-25T02:04:07.258Z,13.50
2023-11-25T02:06:36.234Z,13.50
2023-11-25T02:09:06.778Z,13.50
2023-11-25T02:11:56.031Z,13.50
2023-11-25T02:14:26.419Z,13.50
2023-11-25T02:16:58.441Z,13.50
2023-11-25T02:19:27.599Z,13.60
2023-11-25T02:21:57.345Z,13.70
2023-11-25T02:24:29.206Z,13.70
2023-11-25T02:27:01.599Z,13.80
2023-11-25T02:29:32.355Z,13.80
2023-11-25T02:32:01.227Z,13.80
2023-11-25T02:34:30.569Z,13.80
2023-11-25T02:37:00.019Z,13.80
2023-11-25T02:39:30.171Z,13.80
2023-11-25T02:41:59.538Z,13.80
2023-11-25T02:44:29.104Z,13.80
2023-11-25T02:46:58.177Z,13.80
2023-11-25T02:49:27.139Z,13.80
2023-11-25T02:51:56.759Z,13.90
2023-11-25T02:54:25.998Z,13.90
2023-11-25T02:56:58.569Z,13.90
2023-11-25T02:59:28.202Z,13.90
2023-11-25T03:01:59.986Z,13.90
2023-11-25T03:04:33.884Z,14.00
2023-11-25T03:07:05.950Z,14.00
2023-11-25T03:09:34.982Z,14.00
2023-11-25T03:12:06.670Z,14.00
2023-11-25T03:14:35.279Z,13.90
2023-11-25T03:17:03.871Z,13.90
2023-11-25T03:19:36.827Z,14.00
2023-11-25T03:22:05.642Z,14.00
2023-11-25T03:24:34.212Z,13.90
2023-11-25T03:27:04.588Z,14.00
2023-11-25T03:29:33.176Z,14.00
2023-11-25T03:32:01.909Z,14.00
2023-11-25T03:34:31.435Z,14.00
2023-11-25T03:37:00.062Z,14.00
2023-11-25T03:39:28.622Z,13.90
2023-11-25T03:41:57.247Z,14.00
2023-11-25T03:44:27.159Z,14.00
2023-11-25T03:46:55.924Z,14.00
2023-11-25T03:49:25.767Z,14.10
2023-11-25T03:51:55.784Z,14.10
2023-11-25T03:54:24.420Z,14.10
2023-11-25T03:56:53.150Z,14.10
2023-11-25T03:59:22.332Z,14.00
2023-11-25T04:01:52.408Z,14.10
2023-11-25T04:04:21.152Z,14.10
2023-11-25T04:06:50.071Z,14.00
2023-11-25T04:09:18.674Z,14.00
2023-11-25T04:11:47.388Z,14.10
2023-11-25T04:14:16.066Z,14.00
2023-11-25T04:16:45.074Z,14.00
2023-11-25T04:19:15.248Z,13.90
2023-11-25T04:21:48.635Z,13.80
2023-11-25T04:24:18.501Z,13.70
2023-11-25T04:26:49.067Z,13.70
2023-11-25T04:29:17.684Z,13.50
2023-11-25T04:31:48.141Z,13.50
2023-11-25T04:34:19.228Z,13.40
2023-11-25T04:36:47.804Z,13.40
2023-11-25T04:39:17.203Z,13.40
2023-11-25T04:41:47.330Z,13.40
2023-11-25T04:44:15.929Z,13.40
2023-11-25T04:46:47.122Z,13.50
2023-11-25T04:49:16.074Z,13.50
2023-11-25T04:51:46.295Z,13.50
2023-11-25T04:54:16.082Z,13.50
2023-11-25T04:56:44.670Z,13.50
2023-11-25T04:59:13.278Z,13.50
2023-11-25T05:01:41.851Z,13.40
2023-11-25T05:04:10.821Z,13.40
2023-11-25T05:06:41.360Z,13.30
2023-11-25T05:09:14.899Z,13.30
2023-11-25T05:11:47.390Z,13.30
2023-11-25T05:14:17.427Z,13.40
2023-11-25T05:16:46.266Z,13.30
2023-11-25T05:19:14.942Z,13.30
2023-11-25T05:21:43.625Z,13.30
2023-11-25T05:24:13.842Z,13.30
2023-11-25T05:26:42.404Z,13.30
2023-11-25T05:29:10.954Z,13.30
2023-11-25T05:31:39.714Z,13.30
2023-11-25T05:34:08.463Z,13.30
2023-11-25T05:36:37.033Z,13.30
2023-11-25T05:39:08.234Z,13.30
2023-11-25T05:41:38.693Z,13.30
2023-11-25T05:44:10.730Z,13.40
2023-11-25T05:46:40.295Z,13.40
2023-11-25T05:49:09.876Z,13.40
2023-11-25T05:51:43.410Z,13.40
2023-11-25T05:54:14.264Z,13.50
2023-11-25T05:56:44.750Z,13.50
2023-11-25T05:59:13.369Z,13.50
2023-11-25T06:01:41.988Z,13.60
2023-11-25T06:04:11.252Z,13.60
2023-11-25T06:06:39.836Z,13.70
2023-11-25T06:09:13.131Z,13.60
2023-11-25T06:11:43.540Z,13.70
2023-11-25T06:14:16.499Z,13.70
2023-11-25T06:16:46.067Z,13.70
2023-11-25T06:19:19.180Z,13.70
2023-11-25T06:21:48.716Z,13.80
2023-11-25T06:24:17.991Z,13.80
2023-11-25T06:26:49.500Z,13.80
2023-11-25T06:29:18.299Z,13.80
2023-11-25T06:31:47.606Z,13.90
2023-11-25T06:34:17.268Z,13.90
2023-11-25T06:36:47.430Z,14.00
2023-11-25T06:39:20.559Z,14.10
2023-11-25T06:41:51.140Z,14.30
2023-11-25T06:44:20.125Z,14.50
2023-11-25T06:46:49.821Z,14.60
2023-11-25T06:49:18.537Z,14.60
2023-11-25T06:51:47.166Z,14.60
2023-11-25T06:54:15.808Z,14.50
2023-11-25T06:56:44.477Z,14.50
2023-11-25T06:59:14.513Z,14.50
2023-11-25T07:01:43.156Z,14.40
2023-11-25T07:04:14.970Z,14.30
2023-11-25T07:06:43.989Z,14.30
2023-11-25T07:09:14.493Z,14.20
2023-11-25T07:11:45.032Z,14.20
2023-11-25T07:14:15.101Z,14.20
2023-11-25T07:16:46.599Z,14.20
2023-11-25T07:19:15.455Z,14.20
2023-11-25T07:21:44.029Z,14.20
2023-11-25T07:24:12.896Z,14.30
2023-11-25T07:26:44.188Z,14.30
2023-11-25T07:29:14.840Z,14.30
2023-11-25T07:31:43.426Z,14.30
2023-11-25T07:34:12.032Z,14.30
2023-11-25T07:36:43.352Z,14.20
2023-11-25T07:39:11.998Z,14.00
2023-11-25T07:41:42.057Z,13.80
2023-11-25T07:44:11.052Z,13.50
2023-11-25T07:46:41.313Z,13.60
2023-11-25T07:49:09.977Z,13.60
2023-11-25T07:51:38.560Z,13.70
2023-11-25T07:54:07.369Z,13.70
2023-11-25T07:56:35.933Z,13.70
2023-11-25T07:59:05.987Z,13.70
2023-11-25T08:01:34.659Z,13.70
2023-11-25T08:04:04.821Z,13.70
2023-11-25T08:06:33.409Z,13.70
2023-11-25T08:09:03.698Z,13.80
2023-11-25T08:11:33.718Z,13.70
2023-11-25T08:14:02.569Z,13.60
2023-11-25T08:16:31.482Z,13.70
2023-11-25T08:19:00.309Z,13.70
2023-11-25T08:21:32.210Z,13.80
2023-11-25T08:24:01.595Z,13.90
2023-11-25T08:26:31.168Z,13.80
2023-11-25T08:29:00.555Z,13.80
2023-11-25T08:31:29.513Z,13.90
2023-11-25T08:34:02.138Z,13.90
2023-11-25T08:36:32.250Z,13.90
2023-11-25T08:39:03.014Z,14.00
2023-11-25T08:41:34.475Z,14.10
2023-11-25T08:44:03.277Z,14.30
2023-11-25T08:46:34.998Z,14.40
2023-11-25T08:49:03.775Z,14.70
2023-11-25T08:51:33.846Z,15.00
2023-11-25T08:54:02.343Z,15.10
2023-11-25T08:56:36.353Z,15.30
2023-11-25T08:59:07.189Z,15.30
2023-11-25T09:01:40.566Z,15.30
2023-11-25T09:04:09.365Z,15.20
2023-11-25T09:06:40.884Z,15.20
2023-11-25T09:09:10.051Z,15.10
2023-11-25T09:11:38.676Z,15.10
2023-11-25T09:14:10.899Z,15.00
2023-11-25T09:16:40.255Z,15.00
2023-11-25T09:19:09.800Z,15.10
2023-11-25T09:21:39.999Z,15.10
2023-11-25T09:24:09.177Z,15.20
2023-11-25T09:26:38.176Z,15.30
2023-11-25T09:29:07.705Z,15.20
2023-11-25T09:31:36.399Z,15.20
2023-11-25T09:34:05.186Z,15.30
2023-11-25T09:36:33.847Z,15.30
2023-11-25T09:39:05.066Z,15.20
2023-11-25T09:41:34.441Z,15.10
2023-11-25T09:44:07.094Z,15.10
2023-11-25T09:46:36.110Z,15.00
2023-11-25T09:49:04.781Z,15.00
2023-11-25T09:51:35.425Z,15.10
2023-11-25T09:54:09.328Z,15.10
2023-11-25T09:56:39.142Z,15.10
2023-11-25T09:59:08.785Z,15.20
2023-11-25T10:01:38.581Z,15.20
2023-11-25T10:04:09.475Z,15.20
2023-11-25T10:06:39.545Z,15.10
2023-11-25T10:09:11.946Z,15.00
2023-11-25T10:11:44.290Z,14.90
2023-11-25T10:14:15.192Z,14.70
2023-11-25T10:16:45.584Z,14.50
2023-11-25T10:19:22.557Z,14.50
2023-11-25T10:21:53.128Z,14.40
2023-11-25T10:24:23.753Z,14.30
2023-11-25T10:26:52.744Z,14.30
2023-11-25T10:29:21.960Z,14.30
2023-11-25T10:31:58.394Z,14.10
2023-11-25T10:34:28.290Z,14.10
2023-11-25T10:36:57.710Z,14.10
2023-11-25T10:39:27.906Z,14.00
2023-11-25T10:41:56.503Z,14.00
2023-11-25T10:44:25.053Z,13.90
2023-11-25T10:46:57.509Z,13.50
2023-11-25T10:49:27.374Z,12.70
2023-11-25T10:51:59.270Z,12.40
2023-11-25T10:54:35.073Z,11.90
2023-11-25T10:57:06.579Z,11.40
2023-11-25T10:59:36.518Z,11.10
2023-11-25T11:02:07.696Z,10.80
2023-11-25T11:04:42.914Z,10.70
2023-11-25T11:07:17.050Z,10.20
2023-11-25T11:09:51.916Z,10.10
2023-11-25T11:12:28.405Z,10.20
2023-11-25T11:15:07.133Z,10.40
2023-11-25T11:17:42.626Z,10.50
2023-11-25T11:20:14.298Z,10.60
2023-11-25T11:22:45.406Z,10.70
2023-11-25T11:25:21.624Z,10.80
2023-11-25T11:27:56.910Z,10.80
2023-11-25T11:30:35.875Z,10.70
2023-11-25T11:33:05.921Z,10.60
2023-11-25T11:35:39.813Z,10.50
2023-11-25T11:38:33.395Z,10.50
2023-11-25T11:41:26.884Z,10.80
2023-11-25T11:44:06.138Z,10.80
2023-11-25T11:46:40.143Z,10.80
2023-11-25T11:49:10.033Z,10.90
2023-11-25T11:51:40.343Z,11.00
2023-11-25T11:54:28.738Z,11.10
2023-11-25T11:57:06.624Z,10.90
2023-11-25T12:00:01.600Z,10.70
2023-11-25T12:02:33.826Z,10.20
2023-11-25T12:05:05.453Z,10.00
2023-11-25T12:07:34.258Z,10.00
2023-11-25T12:10:04.472Z,10.00
2023-11-25T12:12:35.895Z,9.80
2023-11-25T12:15:05.989Z,9.80
2023-11-25T12:17:34.831Z,9.70
2023-11-25T12:20:04.110Z,9.70
2023-11-25T12:22:33.025Z,9.70
2023-11-25T12:25:01.864Z,9.60
2023-11-25T12:27:32.548Z,9.40
2023-11-25T12:30:02.713Z,9.30
2023-11-25T12:32:31.415Z,9.30
2023-11-25T12:35:00.247Z,9.10
2023-11-25T12:37:29.099Z,9.20
2023-11-25T12:39:58.069Z,9.10
2023-11-25T12:42:26.720Z,9.10
2023-11-25T12:44:56.679Z,9.10
2023-11-25T12:47:26.705Z,9.10
2023-11-25T12:50:05.937Z,9.10
2023-11-25T12:52:35.989Z,9.10
2023-11-25T12:55:08.435Z,9.10
2023-11-25T12:57:37.188Z,9.00
2023-11-25T13:00:10.408Z,9.00
2023-11-25T13:02:47.134Z,8.70
2023-11-25T13:05:25.603Z,8.60
2023-11-25T13:07:54.405Z,8.50
2023-11-25T13:10:24.299Z,8.20
2023-11-25T13:12:53.011Z,8.10
2023-11-25T13:15:22.242Z,8.00
2023-11-25T13:17:52.928Z,7.80
2023-11-25T13:20:22.026Z,7.70
2023-11-25T13:22:51.250Z,7.80
2023-11-25T13:25:22.473Z,7.90
2023-11-25T13:27:51.059Z,7.90
2023-11-25T13:30:21.270Z,8.00
2023-11-25T13:32:53.198Z,7.90
2023-11-25T13:35:21.882Z,7.80
2023-11-25T13:37:50.769Z,7.80
2023-11-25T13:40:21.005Z,7.80
2023-11-25T13:42:49.630Z,7.70
2023-11-25T13:45:18.238Z,7.60
2023-11-25T13:47:49.174Z,7.40
2023-11-25T13:50:19.214Z,7.30
2023-11-25T13:52:48.099Z,7.30
2023-11-25T13:55:19.944Z,7.20
2023-11-25T13:57:48.820Z,7.10
2023-11-25T14:00:20.228Z,7.00
2023-11-25T14:02:49.158Z,7.00
2023-11-25T14:05:19.885Z,6.90
2023-11-25T14:07:50.044Z,7.00
2023-11-25T14:10:20.537Z,7.00
2023-11-25T14:12:49.216Z,6.90
2023-11-25T14:15:18.103Z,6.90
2023-11-25T14:17:47.656Z,6.90
2023-11-25T14:20:20.378Z,7.00
2023-11-25T14:22:51.164Z,6.90
2023-11-25T14:25:21.497Z,6.60
2023-11-25T14:27:51.241Z,6.70
2023-11-25T14:30:24.169Z,6.60
2023-11-25T14:32:55.749Z,6.50
2023-11-25T14:35:24.644Z,6.60
2023-11-25T14:37:58.332Z,6.60
2023-11-25T14:40:27.375Z,6.60
2023-11-25T14:42:56.100Z,6.70
2023-11-25T14:45:24.789Z,6.80
2023-11-25T14:47:53.995Z,6.90
2023-11-25T14:50:21.681Z,7.00
2023-11-25T14:52:50.360Z,7.20
2023-11-25T14:55:20.515Z,7.20
2023-11-25T14:57:49.086Z,7.20
2023-11-25T15:00:18.184Z,7.30
2023-11-25T15:02:46.937Z,7.40
2023-11-25T15:05:16.937Z,7.40
2023-11-25T15:07:45.569Z,7.50
2023-11-25T15:10:14.343Z,7.40
2023-11-25T15:12:45.375Z,7.20
2023-11-25T15:15:14.706Z,7.10
2023-11-25T15:17:43.387Z,7.00
2023-11-25T15:20:15.022Z,7.00
2023-11-25T15:22:43.858Z,7.10
2023-11-25T15:25:12.831Z,7.20
2023-11-25T15:27:41.694Z,7.30
2023-11-25T15:30:13.789Z,7.50
2023-11-25T15:32:44.245Z,7.30
2023-11-25T15:35:13.676Z,7.40
2023-11-25T15:37:44.274Z,7.40
2023-11-25T15:40:14.597Z,7.50
2023-11-25T15:42:45.391Z,7.30
2023-11-25T15:45:18.079Z,7.30
2023-11-25T15:47:48.336Z,7.20
2023-11-25T15:50:17.760Z,7.30
2023-11-25T15:52:46.424Z,7.30
2023-11-25T15:55:15.067Z,7.30
2023-11-25T15:57:43.652Z,7.30
2023-11-25T16:00:15.829Z,7.30
2023-11-25T16:02:46.463Z,7.30
2023-11-25T16:05:16.277Z,7.30
2023-11-25T16:07:45.707Z,7.40
2023-11-25T16:10:14.818Z,7.40
2023-11-25T16:12:45.995Z,7.40
2023-11-25T16:15:17.653Z,7.60
2023-11-25T16:17:47.823Z,7.60
2023-11-25T16:20:17.164Z,7.50
2023-11-25T16:22:47.304Z,7.40
2023-11-25T16:25:15.945Z,7.20
2023-11-25T16:27:44.665Z,7.20
2023-11-25T16:30:16.446Z,7.20
2023-11-25T16:32:48.024Z,7.30
2023-11-25T16:35:18.274Z,7.30
2023-11-25T16:37:50.201Z,7.30
2023-11-25T16:40:23.743Z,7.20
2023-11-25T16:42:52.544Z,7.20
2023-11-25T16:45:23.500Z,7.20
2023-11-25T16:47:52.609Z,7.20
2023-11-25T16:50:22.715Z,7.30
2023-11-25T16:52:51.396Z,7.30
2023-11-25T16:55:20.103Z,7.30
2023-11-25T16:57:48.744Z,7.30
2023-11-25T17:00:18.289Z,7.30
2023-11-25T17:02:47.482Z,7.20
2023-11-25T17:08:00.352Z,7.00
2023-11-25T17:10:32.096Z,6.60
2023-11-25T17:13:00.903Z,6.30
2023-11-25T17:15:29.550Z,6.20
2023-11-25T17:17:58.239Z,6.10
2023-11-25T17:20:26.989Z,6.00
2023-11-25T17:22:55.890Z,6.00
2023-11-25T17:25:25.950Z,5.90
2023-11-25T17:27:54.883Z,5.90
2023-11-25T17:30:24.521Z,5.90
2023-11-25T17:32:53.360Z,5.90
2023-11-25T17:35:23.598Z,5.90
2023-11-25T17:37:52.323Z,5.90
2023-11-25T17:40:20.929Z,6.00
2023-11-25T17:42:51.251Z,5.90
2023-11-25T17:45:19.875Z,6.00
2023-11-25T17:47:51.531Z,6.10
2023-11-25T17:50:20.278Z,6.10
2023-11-25T17:52:55.589Z,6.10
2023-11-25T17:55:29.525Z,6.00
2023-11-25T17:57:59.545Z,5.90
2023-11-25T18:00:28.179Z,5.90
2023-11-25T18:02:56.882Z,5.90
2023-11-25T18:05:25.564Z,5.90
2023-11-25T18:07:55.075Z,6.00
2023-11-25T18:10:23.825Z,6.00
2023-11-25T18:12:52.465Z,6.00
2023-11-25T18:15:22.425Z,6.10
2023-11-25T18:17:51.161Z,6.40
2023-11-25T18:20:22.737Z,6.50
2023-11-25T18:22:53.663Z,6.50
2023-11-25T18:25:22.090Z,6.50
2023-11-25T18:27:50.790Z,6.30
2023-11-25T18:30:19.221Z,6.40
2023-11-25T18:32:50.276Z,6.40
2023-11-25T18:35:19.420Z,6.30
2023-11-25T18:37:49.188Z,6.30
2023-11-25T18:40:17.832Z,6.40
2023-11-25T18:42:46.256Z,6.40
2023-11-25T18:45:14.647Z,6.50
2023-11-25T18:47:43.144Z,6.50
2023-11-25T18:50:13.889Z,6.60
2023-11-25T18:52:42.607Z,6.60
2023-11-25T18:55:11.457Z,6.60
2023-11-25T18:57:39.959Z,6.60
2023-11-25T19:00:10.195Z,6.40
2023-11-25T19:02:40.555Z,6.50
2023-11-25T19:05:09.816Z,6.50
2023-11-25T19:07:39.725Z,6.60
2023-11-25T19:10:08.983Z,6.70
2023-11-25T19:12:37.400Z,6.80
2023-11-25T19:15:06.810Z,6.80
2023-11-25T19:17:37.377Z,6.80
2023-11-25T19:20:07.112Z,6.70
2023-11-25T19:22:38.072Z,6.60
2023-11-25T19:25:09.245Z,6.50
2023-11-25T19:27:37.724Z,6.60
2023-11-25T19:30:08.216Z,6.40
2023-11-25T19:32:36.741Z,6.40
2023-11-25T19:35:05.716Z,6.50
2023-11-25T19:37:47.381Z,6.60
2023-11-25T19:40:18.649Z,6.70
2023-11-25T19:42:47.055Z,6.80
2023-11-25T19:45:15.594Z,6.80
2023-11-25T19:47:44.450Z,6.80
2023-11-25T19:50:14.549Z,6.90
2023-11-25T19:52:43.319Z,6.90
2023-11-25T19:55:12.325Z,6.90
2023-11-25T19:57:42.203Z,6.90
2023-11-25T20:00:12.302Z,6.90
2023-11-25T20:02:41.055Z,6.90
2023-11-25T20:05:10.120Z,6.90
2023-11-25T20:07:38.539Z,6.90
2023-11-25T20:10:09.545Z,7.00
2023-11-25T20:12:38.126Z,7.00
2023-11-25T20:15:10.193Z,7.10
2023-11-25T20:17:40.159Z,7.10
2023-11-25T20:20:10.485Z,7.10
2023-11-25T20:22:40.134Z,7.10
2023-11-25T20:25:09.031Z,7.00
2023-11-25T20:27:37.467Z,7.00
2023-11-25T20:30:09.599Z,7.10
2023-11-25T20:32:38.288Z,7.00
2023-11-25T20:35:07.882Z,6.90
2023-11-25T20:37:37.448Z,6.90
2023-11-25T20:40:06.740Z,6.80
2023-11-25T20:42:35.113Z,6.90
2023-11-25T20:45:04.292Z,6.80
2023-11-25T20:47:34.013Z,6.80
2023-11-25T20:50:02.444Z,6.80
2023-11-25T20:52:30.981Z,6.70
2023-11-25T20:54:59.360Z,6.80
2023-11-25T20:57:27.704Z,6.80
2023-11-25T20:59:56.060Z,6.90
2023-11-25T21:02:24.685Z,6.80
2023-11-25T21:04:54.552Z,6.90
2023-11-25T21:07:23.658Z,7.00
2023-11-25T21:09:51.989Z,7.00
2023-11-25T21:12:21.573Z,7.10
2023-11-25T21:14:50.722Z,7.00
2023-11-25T21:17:19.075Z,6.90
2023-11-25T21:19:47.770Z,7.00
2023-11-25T21:22:19.914Z,7.00
2023-11-25T21:24:48.340Z,7.20
2023-11-25T21:27:16.992Z,7.20
2023-11-25T21:29:45.430Z,7.30
2023-11-25T21:32:13.796Z,7.30
2023-11-25T21:34:42.234Z,7.30
2023-11-25T21:37:10.744Z,7.40
2023-11-25T21:39:42.659Z,7.30
2023-11-25T21:42:12.761Z,7.30
2023-11-25T21:44:41.119Z,7.40
2023-11-25T21:47:09.585Z,7.40
2023-11-25T21:49:41.095Z,7.40
2023-11-25T21:52:09.699Z,7.50
2023-11-25T21:54:39.401Z,7.40
2023-11-25T21:57:09.622Z,7.40
2023-11-25T21:59:37.956Z,7.30
2023-11-25T22:02:06.727Z,7.20
2023-11-25T22:04:35.234Z,7.20
2023-11-25T22:07:04.803Z,7.20
2023-11-25T22:09:34.650Z,7.30
2023-11-25T22:12:05.371Z,7.50
2023-11-25T22:14:35.221Z,7.50
2023-11-25T22:17:05.162Z,7.60
2023-11-25T22:19:33.704Z,7.50
2023-11-25T22:22:02.013Z,7.40
2023-11-25T22:24:30.588Z,7.30
2023-11-25T22:27:10.884Z,7.30
2023-11-25T22:29:42.424Z,7.40
2023-11-25T22:32:11.182Z,7.40
2023-11-25T22:34:39.661Z,7.30
2023-11-25T22:37:08.053Z,7.30
2023-11-25T22:39:36.796Z,7.20
2023-11-25T22:42:06.154Z,7.10
2023-11-25T22:44:33.705Z,7.10
2023-11-25T22:47:03.420Z,7.10
2023-11-25T22:49:31.903Z,7.10
2023-11-25T22:52:00.426Z,7.00
2023-11-25T22:54:29.245Z,6.90
2023-11-25T22:56:58.485Z,6.90
2023-11-25T22:59:29.065Z,6.70
2023-11-25T23:01:59.579Z,6.60
2023-11-25T23:04:29.536Z,6.50
2023-11-25T23:06:58.724Z,6.50
2023-11-25T23:09:27.088Z,6.50
2023-11-25T23:11:55.438Z,6.50
2023-11-25T23:14:23.875Z,6.50
2023-11-25T23:16:52.233Z,6.50
2023-11-25T23:19:23.112Z,6.60
2023-11-25T23:21:54.010Z,6.60
2023-11-25T23:24:22.459Z,6.50
2023-11-25T23:26:51.562Z,6.50
2023-11-25T23:29:19.977Z,6.60
2023-11-25T23:31:48.442Z,6.60
2023-11-25T23:34:16.813Z,6.60
2023-11-25T23:36:45.125Z,6.60
2023-11-25T23:39:14.807Z,6.60
2023-11-25T23:41:43.163Z,6.60
2023-11-25T23:44:11.578Z,6.60
2023-11-25T23:46:40.099Z,6.60
2023-11-25T23:49:08.517Z,6.50
2023-11-25T23:51:36.877Z,6.50
2023-11-25T23:54:05.386Z,6.50
2023-11-25T23:56:35.909Z,6.60
2023-11-25T23:59:04.567Z,6.50
